Time;durP1;ratioP1;P1;durP2;ratioP2;P2;SDS_P1;SDS_P2;PMS_P1;PMS_P2;Temp;Humidity;BMP_temperature;BMP_pressure;BME280_temperature;BME280_humidity;BME280_pressure;Samples;Min_cycle;Max_cycle;Signal;HPM_P1;HPM_P2
2021/10/14 00:00:51;;;;;;;14.12;8.46;;;;;;;;;;345386;153;857427;-59
2021/10/14 00:01:53;;;;;;;13.71;8.21;;;;;;;;;;341797;155;857289;-59
2021/10/14 00:02:54;;;;;;;14.32;8.85;;;;;;;;;;340317;155;857410;-59
2021/10/14 00:03:56;;;;;;;14.62;8.47;;;;;;;;;;348236;153;866943;-59
2021/10/14 00:04:58;;;;;;;16.14;8.36;;;;;;;;;;348363;153;865456;-59
2021/10/14 00:05:59;;;;;;;14.28;8.53;;;;;;;;;;348954;152;865030;-59
2021/10/14 00:07:01;;;;;;;12.95;7.94;;;;;;;;;;350219;152;865409;-59
2021/10/14 00:08:02;;;;;;;16.52;9.39;;;;;;;;;;347042;154;865103;-59
2021/10/14 00:09:04;;;;;;;12.18;8.30;;;;;;;;;;345321;155;857591;-59
2021/10/14 00:10:07;;;;;;;14.93;7.80;;;;;;;;;;342415;154;865602;-59
2021/10/14 00:11:08;;;;;;;12.19;8.53;;;;;;;;;;346702;153;858386;-59
2021/10/14 00:12:10;;;;;;;16.52;9.00;;;;;;;;;;348758;153;858736;-59
2021/10/14 00:13:11;;;;;;;13.75;8.45;;;;;;;;;;348833;152;865196;-59
2021/10/14 00:14:13;;;;;;;14.55;8.55;;;;;;;;;;349105;152;859146;-59
2021/10/14 00:15:15;;;;;;;14.54;8.14;;;;;;;;;;349645;153;857312;-59
2021/10/14 00:16:17;;;;;;;17.08;9.41;;;;;;;;;;349073;152;865130;-59
2021/10/14 00:17:19;;;;;;;13.44;8.33;;;;;;;;;;343301;155;857342;-59
2021/10/14 00:18:20;;;;;;;15.56;8.72;;;;;;;;;;343557;155;865088;-59
2021/10/14 00:19:22;;;;;;;14.29;8.37;;;;;;;;;;343628;155;864321;-59
2021/10/14 00:20:23;;;;;;;13.68;8.06;;;;;;;;;;349301;151;865956;-59
2021/10/14 00:21:25;;;;;;;14.80;8.76;;;;;;;;;;349430;152;867218;-59
2021/10/14 00:22:27;;;;;;;11.95;7.54;;;;;;;;;;348955;152;865568;-59
2021/10/14 00:23:28;;;;;;;15.89;8.29;;;;;;;;;;348900;153;857397;-59
2021/10/14 00:24:30;;;;;;;11.33;6.55;;;;;;;;;;347695;153;865049;-59
2021/10/14 00:25:31;;;;;;;12.63;7.84;;;;;;;;;;349250;153;857368;-59
2021/10/14 00:26:35;;;;;;;14.58;8.63;;;;;;;;;;347965;153;858245;-59
2021/10/14 00:27:36;;;;;;;16.70;7.83;;;;;;;;;;349406;152;857983;-59
2021/10/14 00:28:38;;;;;;;13.30;8.66;;;;;;;;;;343845;154;865519;-59
2021/10/14 00:29:39;;;;;;;17.31;7.87;;;;;;;;;;351412;151;866924;-59
2021/10/14 00:30:41;;;;;;;15.81;8.63;;;;;;;;;;350985;151;866277;-59
2021/10/14 00:31:43;;;;;;;11.61;7.59;;;;;;;;;;349565;151;857543;-59
2021/10/14 00:32:44;;;;;;;12.90;7.77;;;;;;;;;;349270;151;865995;-59
2021/10/14 00:33:46;;;;;;;14.74;8.66;;;;;;;;;;351455;151;865085;-59
2021/10/14 00:34:48;;;;;;;11.67;7.79;;;;;;;;;;349043;151;865137;-59
2021/10/14 00:35:49;;;;;;;13.25;7.76;;;;;;;;;;350877;152;857248;-59
2021/10/14 00:36:51;;;;;;;13.30;8.21;;;;;;;;;;350375;151;865264;-59
2021/10/14 00:37:52;;;;;;;13.06;8.08;;;;;;;;;;349321;151;866904;-59
2021/10/14 00:38:54;;;;;;;15.72;8.16;;;;;;;;;;348490;151;857401;-59
2021/10/14 00:39:56;;;;;;;12.89;8.04;;;;;;;;;;349168;151;865104;-59
2021/10/14 00:40:57;;;;;;;16.23;8.85;;;;;;;;;;346760;151;857524;-59
2021/10/14 00:41:59;;;;;;;13.61;7.73;;;;;;;;;;348506;152;857174;-59
2021/10/14 00:43:00;;;;;;;14.01;8.05;;;;;;;;;;349161;151;866860;-59
2021/10/14 00:44:02;;;;;;;13.41;8.30;;;;;;;;;;349911;151;859001;-59
2021/10/14 00:45:04;;;;;;;14.76;8.18;;;;;;;;;;349349;151;859663;-59
2021/10/14 00:46:08;;;;;;;12.23;8.05;;;;;;;;;;350547;151;865396;-58
2021/10/14 00:47:09;;;;;;;15.81;8.87;;;;;;;;;;349173;151;857362;-59
2021/10/14 00:48:11;;;;;;;15.69;7.76;;;;;;;;;;349057;152;858347;-59
2021/10/14 00:49:13;;;;;;;8.43;5.92;;;;;;;;;;350257;152;857502;-59
2021/10/14 00:50:14;;;;;;;13.59;7.97;;;;;;;;;;349288;151;859911;-59
2021/10/14 00:51:16;;;;;;;11.96;7.80;;;;;;;;;;348726;151;865123;-59
2021/10/14 00:52:17;;;;;;;12.09;7.52;;;;;;;;;;349571;151;865052;-59
2021/10/14 00:53:19;;;;;;;16.01;7.66;;;;;;;;;;349232;151;857403;-59
2021/10/14 00:54:20;;;;;;;13.27;6.60;;;;;;;;;;348303;151;865026;-58
2021/10/14 00:55:22;;;;;;;10.62;6.74;;;;;;;;;;350101;151;864931;-60
2021/10/14 00:56:25;;;;;;;14.74;7.95;;;;;;;;;;342884;154;857843;-59
2021/10/14 00:57:28;;;;;;;15.30;7.21;;;;;;;;;;344644;154;865161;-60
2021/10/14 00:58:30;;;;;;;12.33;7.14;;;;;;;;;;348163;153;861171;-59
2021/10/14 00:59:32;;;;;;;14.09;7.68;;;;;;;;;;348424;151;857614;-60
2021/10/14 01:00:34;;;;;;;10.85;7.07;;;;;;;;;;359349;147;857232;-60
2021/10/14 01:01:36;;;;;;;12.16;7.21;;;;;;;;;;359132;149;857808;-60
2021/10/14 01:02:37;;;;;;;14.09;7.38;;;;;;;;;;357546;147;866854;-60
2021/10/14 01:03:39;;;;;;;13.25;6.87;;;;;;;;;;358400;147;859250;-59
2021/10/14 01:04:41;;;;;;;13.44;7.44;;;;;;;;;;357852;148;859588;-60
2021/10/14 01:05:42;;;;;;;9.19;6.46;;;;;;;;;;358328;148;858161;-59
2021/10/14 01:06:44;;;;;;;12.28;7.24;;;;;;;;;;359026;147;857738;-60
2021/10/14 01:07:45;;;;;;;12.40;7.15;;;;;;;;;;358939;149;865495;-59
2021/10/14 01:08:47;;;;;;;10.96;7.08;;;;;;;;;;359026;148;865962;-59
2021/10/14 01:09:49;;;;;;;13.85;7.41;;;;;;;;;;358365;148;866175;-60
2021/10/14 01:10:51;;;;;;;11.72;6.45;;;;;;;;;;358021;149;865641;-60
2021/10/14 01:11:52;;;;;;;11.49;6.96;;;;;;;;;;359327;149;857880;-59
2021/10/14 01:12:54;;;;;;;10.79;6.80;;;;;;;;;;358925;147;859073;-59
2021/10/14 01:13:55;;;;;;;11.01;7.45;;;;;;;;;;360086;148;859436;-60
2021/10/14 01:14:57;;;;;;;14.52;7.42;;;;;;;;;;359981;148;865405;-59
2021/10/14 01:15:59;;;;;;;12.96;7.36;;;;;;;;;;358286;148;859205;-60
2021/10/14 01:17:00;;;;;;;10.03;6.84;;;;;;;;;;358769;148;864971;-59
2021/10/14 01:18:02;;;;;;;11.71;6.20;;;;;;;;;;357257;148;865068;-60
2021/10/14 01:19:03;;;;;;;16.39;8.56;;;;;;;;;;359269;149;867076;-59
2021/10/14 01:20:06;;;;;;;12.53;7.27;;;;;;;;;;359934;147;865039;-60
2021/10/14 01:21:07;;;;;;;11.63;7.54;;;;;;;;;;358257;147;865081;-59
2021/10/14 01:22:09;;;;;;;13.06;7.37;;;;;;;;;;358246;147;859173;-60
2021/10/14 01:23:12;;;;;;;14.85;7.54;;;;;;;;;;358438;148;864985;-61
2021/10/14 01:24:14;;;;;;;11.97;7.04;;;;;;;;;;358112;148;865140;-59
2021/10/14 01:25:15;;;;;;;13.98;7.80;;;;;;;;;;359084;147;857462;-59
2021/10/14 01:26:18;;;;;;;12.15;7.35;;;;;;;;;;358047;148;860916;-59
2021/10/14 01:27:19;;;;;;;15.11;8.07;;;;;;;;;;358101;148;859891;-59
2021/10/14 01:28:21;;;;;;;11.43;6.91;;;;;;;;;;352456;150;857591;-59
2021/10/14 01:29:22;;;;;;;12.54;7.18;;;;;;;;;;351950;150;858362;-59
2021/10/14 01:30:26;;;;;;;12.28;7.44;;;;;;;;;;358724;148;865146;-59
2021/10/14 01:31:27;;;;;;;11.83;7.03;;;;;;;;;;357191;148;857268;-59
2021/10/14 01:32:29;;;;;;;12.03;7.48;;;;;;;;;;357495;149;858630;-59
2021/10/14 01:33:31;;;;;;;11.84;7.82;;;;;;;;;;359357;148;865036;-59
2021/10/14 01:34:32;;;;;;;12.34;7.89;;;;;;;;;;358285;149;866022;-59
2021/10/14 01:35:34;;;;;;;13.91;7.01;;;;;;;;;;358321;148;864245;-59
2021/10/14 01:36:36;;;;;;;14.09;6.99;;;;;;;;;;356647;150;858076;-59
2021/10/14 01:37:37;;;;;;;11.01;7.34;;;;;;;;;;346881;152;857367;-60
2021/10/14 01:38:39;;;;;;;13.31;7.60;;;;;;;;;;346999;152;857668;-60
2021/10/14 01:39:41;;;;;;;11.22;7.61;;;;;;;;;;357165;149;857231;-59
2021/10/14 01:40:44;;;;;;;11.96;7.19;;;;;;;;;;358952;148;856457;-59
2021/10/14 01:41:47;;;;;;;13.97;7.39;;;;;;;;;;359497;149;857792;-59
2021/10/14 01:42:48;;;;;;;11.58;7.58;;;;;;;;;;359018;149;858627;-60
2021/10/14 01:43:50;;;;;;;14.51;7.90;;;;;;;;;;358747;148;865860;-59
2021/10/14 01:44:51;;;;;;;13.48;7.88;;;;;;;;;;359181;147;857433;-59
2021/10/14 01:45:53;;;;;;;14.11;7.86;;;;;;;;;;358797;147;857799;-59
2021/10/14 01:46:55;;;;;;;12.27;7.49;;;;;;;;;;358817;149;867132;-59
2021/10/14 01:47:57;;;;;;;16.61;8.39;;;;;;;;;;357883;148;858823;-59
2021/10/14 01:48:58;;;;;;;13.14;7.41;;;;;;;;;;358489;147;857305;-59
2021/10/14 01:50:00;;;;;;;13.91;8.49;;;;;;;;;;355666;147;865005;-59
2021/10/14 01:51:01;;;;;;;11.97;7.45;;;;;;;;;;357782;148;857302;-59
2021/10/14 01:52:03;;;;;;;13.45;7.81;;;;;;;;;;358560;148;865020;-59
2021/10/14 01:53:04;;;;;;;13.66;7.74;;;;;;;;;;355793;147;859842;-59
2021/10/14 01:54:06;;;;;;;9.32;6.71;;;;;;;;;;358693;150;865934;-59
2021/10/14 01:55:08;;;;;;;12.42;7.86;;;;;;;;;;357677;148;858507;-59
2021/10/14 01:56:09;;;;;;;16.55;7.85;;;;;;;;;;358169;148;857422;-60
2021/10/14 01:57:11;;;;;;;16.13;8.42;;;;;;;;;;358847;148;865122;-60
2021/10/14 01:58:12;;;;;;;11.84;7.42;;;;;;;;;;359132;147;857917;-60
2021/10/14 01:59:14;;;;;;;10.46;7.28;;;;;;;;;;358820;149;858966;-60
2021/10/14 02:00:15;;;;;;;13.71;7.59;;;;;;;;;;359723;148;857683;-59
2021/10/14 02:01:17;;;;;;;14.95;8.36;;;;;;;;;;360458;147;865044;-59
2021/10/14 02:02:19;;;;;;;16.85;8.01;;;;;;;;;;357616;148;857393;-59
2021/10/14 02:03:20;;;;;;;12.29;7.71;;;;;;;;;;359126;149;866682;-59
2021/10/14 02:04:22;;;;;;;11.50;7.12;;;;;;;;;;359661;148;864025;-59
2021/10/14 02:05:23;;;;;;;17.76;8.58;;;;;;;;;;359816;147;857447;-60
2021/10/14 02:06:25;;;;;;;11.57;7.51;;;;;;;;;;358995;149;857782;-59
2021/10/14 02:07:27;;;;;;;13.97;9.31;;;;;;;;;;356289;147;859680;-59
2021/10/14 02:08:28;;;;;;;16.19;7.14;;;;;;;;;;359624;148;857644;-58
2021/10/14 02:09:30;;;;;;;15.21;8.41;;;;;;;;;;358785;147;857417;-59
2021/10/14 02:10:34;;;;;;;13.55;7.41;;;;;;;;;;358701;149;858193;-60
2021/10/14 02:11:36;;;;;;;10.41;7.11;;;;;;;;;;359431;149;859042;-60
2021/10/14 02:12:38;;;;;;;12.89;7.73;;;;;;;;;;356773;149;865139;-60
2021/10/14 02:13:39;;;;;;;12.13;7.43;;;;;;;;;;359231;147;861011;-59
2021/10/14 02:14:41;;;;;;;14.38;7.39;;;;;;;;;;358797;149;858916;-60
2021/10/14 02:15:42;;;;;;;13.48;7.70;;;;;;;;;;358128;148;865667;-59
2021/10/14 02:16:45;;;;;;;13.90;7.78;;;;;;;;;;356707;148;859705;-59
2021/10/14 02:17:46;;;;;;;11.71;7.35;;;;;;;;;;358560;148;857742;-59
2021/10/14 02:18:48;;;;;;;13.13;6.81;;;;;;;;;;357518;148;865693;-60
2021/10/14 02:19:49;;;;;;;12.60;7.98;;;;;;;;;;358979;148;857352;-59
2021/10/14 02:20:51;;;;;;;12.65;7.69;;;;;;;;;;357570;149;857365;-59
2021/10/14 02:21:53;;;;;;;11.94;7.53;;;;;;;;;;359446;149;857747;-59
2021/10/14 02:22:55;;;;;;;12.46;6.82;;;;;;;;;;358036;147;859209;-59
2021/10/14 02:23:56;;;;;;;12.42;8.00;;;;;;;;;;356116;149;859099;-59
2021/10/14 02:24:58;;;;;;;13.71;8.65;;;;;;;;;;357899;148;866762;-59
2021/10/14 02:26:00;;;;;;;13.60;7.86;;;;;;;;;;359426;147;866668;-59
2021/10/14 02:27:01;;;;;;;12.41;7.99;;;;;;;;;;357574;147;866691;-59
2021/10/14 02:28:03;;;;;;;11.06;7.71;;;;;;;;;;359143;147;865901;-59
2021/10/14 02:29:05;;;;;;;13.96;7.83;;;;;;;;;;358510;149;865869;-59
2021/10/14 02:30:09;;;;;;;14.34;8.26;;;;;;;;;;357594;147;857224;-59
2021/10/14 02:31:10;;;;;;;14.38;8.34;;;;;;;;;;358546;148;857856;-59
2021/10/14 02:32:12;;;;;;;14.34;8.26;;;;;;;;;;359473;149;859208;-59
2021/10/14 02:33:13;;;;;;;12.29;7.87;;;;;;;;;;357410;147;866802;-59
2021/10/14 02:34:15;;;;;;;16.65;8.68;;;;;;;;;;358148;148;866719;-59
2021/10/14 02:35:16;;;;;;;12.80;8.23;;;;;;;;;;359171;147;866299;-59
2021/10/14 02:36:18;;;;;;;14.86;8.71;;;;;;;;;;358322;148;859984;-59
2021/10/14 02:37:20;;;;;;;12.37;8.85;;;;;;;;;;357716;148;858157;-58
2021/10/14 02:38:21;;;;;;;13.23;9.05;;;;;;;;;;358865;148;856857;-59
2021/10/14 19:13:46;;;;;;;37.83;15.90;;;;;;;2.09;80.23;100547.63;362568;145;859009;-59
2021/10/14 19:14:46;;;;;;;38.79;16.76;;;;;;;2.12;79.27;100554.55;362137;145;866788;-59
2021/10/14 19:15:50;;;;;;;32.42;14.89;;;;;;;2.14;78.98;100547.81;357968;146;857422;-59
2021/10/14 19:16:59;;;;;;;31.41;15.57;;;;;;;2.25;78.85;100556.73;357663;148;865494;-59
2021/10/14 19:19:55;;;;;;;27.28;14.50;;;;;;;2.55;77.57;100555.21;357499;148;857955;-60
2021/10/14 20:14:49;;;;;;;26.65;15.83;;;;;;;;;;357012;148;857736;-60
